sensor_id;sensor_type;location;lat;lon;timestamp;temperature;humidity
6758;DHT22;3416;53.074;8.822;2023-07-20T00:00:58;16.80;99.90
6758;DHT22;3416;53.074;8.822;2023-07-20T00:03:27;16.80;99.90
6758;DHT22;3416;53.074;8.822;2023-07-20T00:05:53;16.90;99.90
6758;DHT22;3416;53.074;8.822;2023-07-20T00:08:20;16.90;99.90
6758;DHT22;3416;53.074;8.822;2023-07-20T00:10:47;16.80;99.90
6758;DHT22;3416;53.074;8.822;2023-07-20T00:13:14;16.90;99.90
6758;DHT22;3416;53.074;8.822;2023-07-20T00:15:44;16.90;99.90
6758;DHT22;3416;53.074;8.822;2023-07-20T00:18:11;16.90;99.90
6758;DHT22;3416;53.074;8.822;2023-07-20T00:20:39;16.90;99.90
6758;DHT22;3416;53.074;8.822;2023-07-20T00:23:06;16.90;99.90
6758;DHT22;3416;53.074;8.822;2023-07-20T00:25:33;16.90;99.90
6758;DHT22;3416;53.074;8.822;2023-07-20T00:28:00;16.90;99.90
6758;DHT22;3416;53.074;8.822;2023-07-20T00:30:26;16.90;99.90
6758;DHT22;3416;53.074;8.822;2023-07-20T00:32:53;17.00;99.90
6758;DHT22;3416;53.074;8.822;2023-07-20T00:35:20;16.90;99.90
6758;DHT22;3416;53.074;8.822;2023-07-20T00:37:49;16.90;99.90
6758;DHT22;3416;53.074;8.822;2023-07-20T00:40:16;16.90;99.90
6758;DHT22;3416;53.074;8.822;2023-07-20T00:42:43;16.90;99.90
6758;DHT22;3416;53.074;8.822;2023-07-20T00:45:10;16.90;99.90
6758;DHT22;3416;53.074;8.822;2023-07-20T00:47:37;16.90;99.90
6758;DHT22;3416;53.074;8.822;2023-07-20T00:50:05;16.90;99.90
6758;DHT22;3416;53.074;8.822;2023-07-20T00:52:33;16.90;99.90
6758;DHT22;3416;53.074;8.822;2023-07-20T00:55:01;16.90;99.90
6758;DHT22;3416;53.074;8.822;2023-07-20T00:57:28;16.90;99.90
6758;DHT22;3416;53.074;8.822;2023-07-20T00:59:55;16.80;99.90
6758;DHT22;3416;53.074;8.822;2023-07-20T01:02:22;16.80;99.90
6758;DHT22;3416;53.074;8.822;2023-07-20T01:04:49;16.80;99.90
6758;DHT22;3416;53.074;8.822;2023-07-20T01:07:23;16.70;99.90
6758;DHT22;3416;53.074;8.822;2023-07-20T01:09:57;16.60;99.90
6758;DHT22;3416;53.074;8.822;2023-07-20T01:12:31;16.50;99.90
6758;DHT22;3416;53.074;8.822;2023-07-20T01:14:59;16.50;99.90
6758;DHT22;3416;53.074;8.822;2023-07-20T01:17:26;16.40;99.90
6758;DHT22;3416;53.074;8.822;2023-07-20T01:19:53;16.40;99.90
6758;DHT22;3416;53.074;8.822;2023-07-20T01:22:34;16.40;99.90
6758;DHT22;3416;53.074;8.822;2023-07-20T01:25:15;16.40;99.90
6758;DHT22;3416;53.074;8.822;2023-07-20T01:30:51;16.30;99.90
6758;DHT22;3416;53.074;8.822;2023-07-20T01:33:22;16.20;99.90
6758;DHT22;3416;53.074;8.822;2023-07-20T01:35:54;16.10;99.90
6758;DHT22;3416;53.074;8.822;2023-07-20T01:38:24;16.00;99.90
6758;DHT22;3416;53.074;8.822;2023-07-20T01:40:51;16.10;99.90
6758;DHT22;3416;53.074;8.822;2023-07-20T01:43:18;16.10;99.90
6758;DHT22;3416;53.074;8.822;2023-07-20T01:45:45;16.00;99.90
6758;DHT22;3416;53.074;8.822;2023-07-20T01:48:12;16.10;99.90
6758;DHT22;3416;53.074;8.822;2023-07-20T01:50:47;16.10;99.90
6758;DHT22;3416;53.074;8.822;2023-07-20T01:53:13;16.10;99.90
6758;DHT22;3416;53.074;8.822;2023-07-20T01:55:40;16.00;99.90
6758;DHT22;3416;53.074;8.822;2023-07-20T01:58:07;16.00;99.90
6758;DHT22;3416;53.074;8.822;2023-07-20T02:00:36;16.10;99.90
6758;DHT22;3416;53.074;8.822;2023-07-20T02:03:03;16.00;99.90
6758;DHT22;3416;53.074;8.822;2023-07-20T02:05:30;16.10;99.90
6758;DHT22;3416;53.074;8.822;2023-07-20T02:07:58;16.00;99.90
6758;DHT22;3416;53.074;8.822;2023-07-20T02:10:25;16.00;99.90
6758;DHT22;3416;53.074;8.822;2023-07-20T02:12:52;16.10;99.90
6758;DHT22;3416;53.074;8.822;2023-07-20T02:15:20;16.10;99.90
6758;DHT22;3416;53.074;8.822;2023-07-20T02:17:46;16.10;99.90
6758;DHT22;3416;53.074;8.822;2023-07-20T02:20:13;16.10;99.90
6758;DHT22;3416;53.074;8.822;2023-07-20T02:22:40;16.00;99.90
6758;DHT22;3416;53.074;8.822;2023-07-20T02:25:09;16.00;99.90
6758;DHT22;3416;53.074;8.822;2023-07-20T02:27:37;16.00;99.90
6758;DHT22;3416;53.074;8.822;2023-07-20T02:30:05;16.00;99.90
6758;DHT22;3416;53.074;8.822;2023-07-20T02:32:33;15.90;99.90
6758;DHT22;3416;53.074;8.822;2023-07-20T02:35:00;15.90;99.90
6758;DHT22;3416;53.074;8.822;2023-07-20T02:37:29;15.80;99.90
6758;DHT22;3416;53.074;8.822;2023-07-20T02:39:56;15.80;99.90
6758;DHT22;3416;53.074;8.822;2023-07-20T02:42:24;15.80;99.90
6758;DHT22;3416;53.074;8.822;2023-07-20T02:44:51;15.70;99.90
6758;DHT22;3416;53.074;8.822;2023-07-20T02:47:18;15.70;99.90
6758;DHT22;3416;53.074;8.822;2023-07-20T02:49:45;15.80;99.90
6758;DHT22;3416;53.074;8.822;2023-07-20T02:52:12;15.80;99.90
6758;DHT22;3416;53.074;8.822;2023-07-20T02:54:39;15.80;99.90
6758;DHT22;3416;53.074;8.822;2023-07-20T02:57:06;15.90;99.90
6758;DHT22;3416;53.074;8.822;2023-07-20T02:59:34;15.90;99.90
6758;DHT22;3416;53.074;8.822;2023-07-20T03:02:01;15.80;99.90
6758;DHT22;3416;53.074;8.822;2023-07-20T03:04:28;15.90;99.90
6758;DHT22;3416;53.074;8.822;2023-07-20T03:06:55;15.90;99.90
6758;DHT22;3416;53.074;8.822;2023-07-20T03:09:22;15.80;99.90
6758;DHT22;3416;53.074;8.822;2023-07-20T03:11:50;15.80;99.90
6758;DHT22;3416;53.074;8.822;2023-07-20T03:14:16;15.80;99.90
6758;DHT22;3416;53.074;8.822;2023-07-20T03:16:45;15.90;99.90
6758;DHT22;3416;53.074;8.822;2023-07-20T03:19:11;15.90;99.90
6758;DHT22;3416;53.074;8.822;2023-07-20T03:21:38;15.80;99.90
6758;DHT22;3416;53.074;8.822;2023-07-20T03:24:06;15.90;99.90
6758;DHT22;3416;53.074;8.822;2023-07-20T03:26:34;15.90;99.90
6758;DHT22;3416;53.074;8.822;2023-07-20T03:29:01;15.90;99.90
6758;DHT22;3416;53.074;8.822;2023-07-20T03:31:28;15.90;99.90
6758;DHT22;3416;53.074;8.822;2023-07-20T03:33:56;15.90;99.90
6758;DHT22;3416;53.074;8.822;2023-07-20T03:36:23;15.90;99.90
6758;DHT22;3416;53.074;8.822;2023-07-20T03:38:50;16.00;99.90
6758;DHT22;3416;53.074;8.822;2023-07-20T03:41:17;15.90;99.90
6758;DHT22;3416;53.074;8.822;2023-07-20T03:43:45;16.00;99.90
6758;DHT22;3416;53.074;8.822;2023-07-20T03:46:12;15.90;99.90
6758;DHT22;3416;53.074;8.822;2023-07-20T03:48:39;16.00;99.90
6758;DHT22;3416;53.074;8.822;2023-07-20T03:51:07;16.00;99.90
6758;DHT22;3416;53.074;8.822;2023-07-20T03:53:34;16.00;99.90
6758;DHT22;3416;53.074;8.822;2023-07-20T03:56:01;15.90;99.90
6758;DHT22;3416;53.074;8.822;2023-07-20T03:58:28;15.90;99.90
6758;DHT22;3416;53.074;8.822;2023-07-20T04:00:57;16.00;99.90
6758;DHT22;3416;53.074;8.822;2023-07-20T04:03:24;16.00;99.90
6758;DHT22;3416;53.074;8.822;2023-07-20T04:05:53;16.00;99.90
6758;DHT22;3416;53.074;8.822;2023-07-20T04:08:22;16.00;99.90
6758;DHT22;3416;53.074;8.822;2023-07-20T04:10:49;16.00;99.90
6758;DHT22;3416;53.074;8.822;2023-07-20T04:13:17;16.10;99.90
6758;DHT22;3416;53.074;8.822;2023-07-20T04:15:44;16.10;99.90
6758;DHT22;3416;53.074;8.822;2023-07-20T04:18:11;16.10;99.90
6758;DHT22;3416;53.074;8.822;2023-07-20T04:20:37;16.10;99.90
6758;DHT22;3416;53.074;8.822;2023-07-20T04:23:04;16.20;99.90
6758;DHT22;3416;53.074;8.822;2023-07-20T04:25:33;16.20;99.90
6758;DHT22;3416;53.074;8.822;2023-07-20T04:28:04;16.20;99.90
6758;DHT22;3416;53.074;8.822;2023-07-20T04:30:34;16.20;99.90
6758;DHT22;3416;53.074;8.822;2023-07-20T04:33:01;16.20;99.90
6758;DHT22;3416;53.074;8.822;2023-07-20T04:35:47;16.20;99.90
6758;DHT22;3416;53.074;8.822;2023-07-20T04:38:15;16.20;99.90
6758;DHT22;3416;53.074;8.822;2023-07-20T04:40:44;16.30;99.90
6758;DHT22;3416;53.074;8.822;2023-07-20T04:43:12;16.30;99.90
6758;DHT22;3416;53.074;8.822;2023-07-20T04:45:39;16.50;99.90
6758;DHT22;3416;53.074;8.822;2023-07-20T04:48:09;16.50;99.90
6758;DHT22;3416;53.074;8.822;2023-07-20T04:50:36;16.70;99.90
6758;DHT22;3416;53.074;8.822;2023-07-20T04:53:03;16.90;99.90
6758;DHT22;3416;53.074;8.822;2023-07-20T04:55:30;17.20;99.90
6758;DHT22;3416;53.074;8.822;2023-07-20T04:58:00;17.60;99.90
6758;DHT22;3416;53.074;8.822;2023-07-20T05:00:27;17.80;99.90
6758;DHT22;3416;53.074;8.822;2023-07-20T05:02:55;18.00;99.90
6758;DHT22;3416;53.074;8.822;2023-07-20T05:05:22;18.40;99.90
6758;DHT22;3416;53.074;8.822;2023-07-20T05:07:49;18.90;99.90
6758;DHT22;3416;53.074;8.822;2023-07-20T05:10:17;19.80;99.90
6758;DHT22;3416;53.074;8.822;2023-07-20T05:12:44;21.00;99.90
6758;DHT22;3416;53.074;8.822;2023-07-20T05:15:12;22.00;99.90
6758;DHT22;3416;53.074;8.822;2023-07-20T05:17:40;22.70;99.90
6758;DHT22;3416;53.074;8.822;2023-07-20T05:20:07;22.90;99.90
6758;DHT22;3416;53.074;8.822;2023-07-20T05:22:35;23.20;99.90
6758;DHT22;3416;53.074;8.822;2023-07-20T05:25:06;24.00;99.90
6758;DHT22;3416;53.074;8.822;2023-07-20T05:27:34;24.90;99.90
6758;DHT22;3416;53.074;8.822;2023-07-20T05:30:01;25.60;99.90
6758;DHT22;3416;53.074;8.822;2023-07-20T05:32:30;26.10;98.50
6758;DHT22;3416;53.074;8.822;2023-07-20T05:34:57;26.60;96.00
6758;DHT22;3416;53.074;8.822;2023-07-20T05:37:24;27.20;94.30
6758;DHT22;3416;53.074;8.822;2023-07-20T05:39:51;27.80;92.80
6758;DHT22;3416;53.074;8.822;2023-07-20T05:42:18;28.20;91.30
6758;DHT22;3416;53.074;8.822;2023-07-20T05:44:45;28.30;90.70
6758;DHT22;3416;53.074;8.822;2023-07-20T05:47:13;28.50;90.00
6758;DHT22;3416;53.074;8.822;2023-07-20T05:49:41;29.10;88.70
6758;DHT22;3416;53.074;8.822;2023-07-20T05:52:08;29.50;85.90
6758;DHT22;3416;53.074;8.822;2023-07-20T05:54:35;29.70;85.30
6758;DHT22;3416;53.074;8.822;2023-07-20T05:57:02;30.20;84.20
6758;DHT22;3416;53.074;8.822;2023-07-20T05:59:29;30.30;82.10
6758;DHT22;3416;53.074;8.822;2023-07-20T06:01:56;30.30;82.30
6758;DHT22;3416;53.074;8.822;2023-07-20T06:04:23;30.20;81.40
6758;DHT22;3416;53.074;8.822;2023-07-20T06:06:51;30.50;81.80
6758;DHT22;3416;53.074;8.822;2023-07-20T06:09:18;30.60;79.90
6758;DHT22;3416;53.074;8.822;2023-07-20T06:11:45;30.80;78.80
6758;DHT22;3416;53.074;8.822;2023-07-20T06:14:12;30.90;79.30
6758;DHT22;3416;53.074;8.822;2023-07-20T06:16:39;31.10;77.90
6758;DHT22;3416;53.074;8.822;2023-07-20T06:19:06;31.30;76.30
6758;DHT22;3416;53.074;8.822;2023-07-20T06:21:33;31.40;75.70
6758;DHT22;3416;53.074;8.822;2023-07-20T06:24:01;31.60;75.10
6758;DHT22;3416;53.074;8.822;2023-07-20T06:26:28;31.70;74.80
6758;DHT22;3416;53.074;8.822;2023-07-20T06:28:55;32.00;74.00
6758;DHT22;3416;53.074;8.822;2023-07-20T06:31:22;32.40;73.30
6758;DHT22;3416;53.074;8.822;2023-07-20T06:33:49;32.00;72.40
6758;DHT22;3416;53.074;8.822;2023-07-20T06:36:18;31.30;74.00
6758;DHT22;3416;53.074;8.822;2023-07-20T06:38:45;30.40;75.30
6758;DHT22;3416;53.074;8.822;2023-07-20T06:41:13;29.80;77.90
6758;DHT22;3416;53.074;8.822;2023-07-20T06:43:40;29.10;77.60
6758;DHT22;3416;53.074;8.822;2023-07-20T06:46:07;28.00;79.60
6758;DHT22;3416;53.074;8.822;2023-07-20T06:48:34;27.70;82.50
6758;DHT22;3416;53.074;8.822;2023-07-20T06:51:00;26.60;84.10
6758;DHT22;3416;53.074;8.822;2023-07-20T06:53:28;25.70;87.30
6758;DHT22;3416;53.074;8.822;2023-07-20T06:55:55;25.30;89.50
6758;DHT22;3416;53.074;8.822;2023-07-20T06:58:24;24.90;90.10
6758;DHT22;3416;53.074;8.822;2023-07-20T07:00:52;24.30;90.90
6758;DHT22;3416;53.074;8.822;2023-07-20T07:03:19;23.60;91.60
6758;DHT22;3416;53.074;8.822;2023-07-20T07:05:46;23.20;92.80
6758;DHT22;3416;53.074;8.822;2023-07-20T07:08:13;22.80;94.10
6758;DHT22;3416;53.074;8.822;2023-07-20T07:10:41;23.00;94.10
6758;DHT22;3416;53.074;8.822;2023-07-20T07:13:08;23.00;95.00
6758;DHT22;3416;53.074;8.822;2023-07-20T07:15:36;23.20;93.70
6758;DHT22;3416;53.074;8.822;2023-07-20T07:18:03;23.20;93.50
6758;DHT22;3416;53.074;8.822;2023-07-20T07:20:30;23.50;92.90
6758;DHT22;3416;53.074;8.822;2023-07-20T07:22:57;24.00;92.70
6758;DHT22;3416;53.074;8.822;2023-07-20T07:25:24;24.80;90.60
6758;DHT22;3416;53.074;8.822;2023-07-20T07:27:52;24.40;90.40
6758;DHT22;3416;53.074;8.822;2023-07-20T07:30:19;24.20;91.90
6758;DHT22;3416;53.074;8.822;2023-07-20T07:32:48;25.10;90.00
6758;DHT22;3416;53.074;8.822;2023-07-20T07:35:14;26.00;88.40
6758;DHT22;3416;53.074;8.822;2023-07-20T07:37:41;27.20;86.10
6758;DHT22;3416;53.074;8.822;2023-07-20T07:40:09;28.50;82.50
6758;DHT22;3416;53.074;8.822;2023-07-20T07:42:36;29.30;79.00
6758;DHT22;3416;53.074;8.822;2023-07-20T07:45:04;28.70;77.30
6758;DHT22;3416;53.074;8.822;2023-07-20T07:47:31;29.00;77.00
6758;DHT22;3416;53.074;8.822;2023-07-20T07:50:00;29.50;76.80
6758;DHT22;3416;53.074;8.822;2023-07-20T07:52:26;30.40;74.80
6758;DHT22;3416;53.074;8.822;2023-07-20T07:54:53;31.00;72.40
6758;DHT22;3416;53.074;8.822;2023-07-20T07:57:20;31.60;71.20
6758;DHT22;3416;53.074;8.822;2023-07-20T07:59:47;31.80;68.30
6758;DHT22;3416;53.074;8.822;2023-07-20T08:02:15;30.80;68.00
6758;DHT22;3416;53.074;8.822;2023-07-20T08:04:42;30.70;70.00
6758;DHT22;3416;53.074;8.822;2023-07-20T08:07:10;31.20;68.30
6758;DHT22;3416;53.074;8.822;2023-07-20T08:09:37;31.40;68.70
6758;DHT22;3416;53.074;8.822;2023-07-20T08:12:05;31.10;67.40
6758;DHT22;3416;53.074;8.822;2023-07-20T08:14:32;29.80;68.10
6758;DHT22;3416;53.074;8.822;2023-07-20T08:16:58;28.60;70.60
6758;DHT22;3416;53.074;8.822;2023-07-20T08:19:25;27.90;73.50
6758;DHT22;3416;53.074;8.822;2023-07-20T08:21:52;26.90;74.70
6758;DHT22;3416;53.074;8.822;2023-07-20T08:24:21;26.00;77.40
6758;DHT22;3416;53.074;8.822;2023-07-20T08:26:48;25.30;79.20
6758;DHT22;3416;53.074;8.822;2023-07-20T08:29:14;26.00;80.40
6758;DHT22;3416;53.074;8.822;2023-07-20T08:31:41;27.20;77.00
6758;DHT22;3416;53.074;8.822;2023-07-20T08:34:08;28.30;74.50
6758;DHT22;3416;53.074;8.822;2023-07-20T08:36:36;29.10;71.40
6758;DHT22;3416;53.074;8.822;2023-07-20T08:39:02;29.90;70.60
6758;DHT22;3416;53.074;8.822;2023-07-20T08:41:31;30.90;68.20
6758;DHT22;3416;53.074;8.822;2023-07-20T08:43:58;31.60;65.80
6758;DHT22;3416;53.074;8.822;2023-07-20T08:46:27;32.10;65.70
6758;DHT22;3416;53.074;8.822;2023-07-20T08:48:55;32.60;63.30
6758;DHT22;3416;53.074;8.822;2023-07-20T08:51:23;32.50;64.10
6758;DHT22;3416;53.074;8.822;2023-07-20T08:53:52;31.80;63.40
6758;DHT22;3416;53.074;8.822;2023-07-20T08:56:20;31.90;62.20
6758;DHT22;3416;53.074;8.822;2023-07-20T08:58:48;32.20;63.20
6758;DHT22;3416;53.074;8.822;2023-07-20T09:01:17;31.40;60.40
6758;DHT22;3416;53.074;8.822;2023-07-20T09:03:45;30.60;62.70
6758;DHT22;3416;53.074;8.822;2023-07-20T09:06:15;31.00;63.90
6758;DHT22;3416;53.074;8.822;2023-07-20T09:08:43;31.70;62.50
6758;DHT22;3416;53.074;8.822;2023-07-20T09:11:12;31.80;61.00
6758;DHT22;3416;53.074;8.822;2023-07-20T09:13:42;31.60;61.50
6758;DHT22;3416;53.074;8.822;2023-07-20T09:16:13;31.80;61.30
6758;DHT22;3416;53.074;8.822;2023-07-20T09:18:41;32.20;62.20
6758;DHT22;3416;53.074;8.822;2023-07-20T09:21:09;32.20;62.10
6758;DHT22;3416;53.074;8.822;2023-07-20T09:23:40;32.60;60.90
6758;DHT22;3416;53.074;8.822;2023-07-20T09:36:04;32.80;57.40
6758;DHT22;3416;53.074;8.822;2023-07-20T09:38:32;31.50;57.10
6758;DHT22;3416;53.074;8.822;2023-07-20T09:41:16;31.10;59.00
6758;DHT22;3416;53.074;8.822;2023-07-20T09:46:44;30.30;61.30
6758;DHT22;3416;53.074;8.822;2023-07-20T09:49:12;30.30;62.30
6758;DHT22;3416;53.074;8.822;2023-07-20T09:51:44;30.70;62.50
6758;DHT22;3416;53.074;8.822;2023-07-20T10:01:03;29.90;63.60
6758;DHT22;3416;53.074;8.822;2023-07-20T10:03:31;29.40;63.50
6758;DHT22;3416;53.074;8.822;2023-07-20T10:06:02;30.00;63.90
6758;DHT22;3416;53.074;8.822;2023-07-20T10:08:32;30.20;63.10
6758;DHT22;3416;53.074;8.822;2023-07-20T10:11:07;30.50;62.70
6758;DHT22;3416;53.074;8.822;2023-07-20T10:13:37;29.60;63.90
6758;DHT22;3416;53.074;8.822;2023-07-20T10:16:10;28.60;65.70
6758;DHT22;3416;53.074;8.822;2023-07-20T10:18:42;27.40;72.80
6758;DHT22;3416;53.074;8.822;2023-07-20T10:21:15;26.20;79.40
6758;DHT22;3416;53.074;8.822;2023-07-20T10:23:45;25.20;84.00
6758;DHT22;3416;53.074;8.822;2023-07-20T10:26:13;24.30;88.10
6758;DHT22;3416;53.074;8.822;2023-07-20T10:28:41;23.60;88.80
6758;DHT22;3416;53.074;8.822;2023-07-20T10:31:09;22.90;90.90
6758;DHT22;3416;53.074;8.822;2023-07-20T10:33:37;22.30;92.60
6758;DHT22;3416;53.074;8.822;2023-07-20T10:36:05;22.00;93.60
6758;DHT22;3416;53.074;8.822;2023-07-20T10:38:39;21.90;93.50
6758;DHT22;3416;53.074;8.822;2023-07-20T10:41:18;22.30;94.10
6758;DHT22;3416;53.074;8.822;2023-07-20T10:43:45;22.90;92.30
6758;DHT22;3416;53.074;8.822;2023-07-20T10:46:12;23.30;91.60
6758;DHT22;3416;53.074;8.822;2023-07-20T10:49:00;23.90;89.80
6758;DHT22;3416;53.074;8.822;2023-07-20T10:51:27;24.20;88.60
6758;DHT22;3416;53.074;8.822;2023-07-20T10:53:55;24.50;89.50
6758;DHT22;3416;53.074;8.822;2023-07-20T10:56:27;24.60;87.40
6758;DHT22;3416;53.074;8.822;2023-07-20T10:58:57;24.80;86.80
6758;DHT22;3416;53.074;8.822;2023-07-20T11:01:28;24.60;86.70
6758;DHT22;3416;53.074;8.822;2023-07-20T11:03:57;24.40;84.50
6758;DHT22;3416;53.074;8.822;2023-07-20T11:06:32;23.70;84.90
6758;DHT22;3416;53.074;8.822;2023-07-20T11:09:06;23.80;87.50
6758;DHT22;3416;53.074;8.822;2023-07-20T11:11:35;24.00;87.10
6758;DHT22;3416;53.074;8.822;2023-07-20T11:14:03;24.10;87.00
6758;DHT22;3416;53.074;8.822;2023-07-20T11:16:35;23.60;86.50
6758;DHT22;3416;53.074;8.822;2023-07-20T11:19:04;23.80;86.70
6758;DHT22;3416;53.074;8.822;2023-07-20T11:21:36;23.90;86.00
6758;DHT22;3416;53.074;8.822;2023-07-20T11:24:04;23.80;85.50
6758;DHT22;3416;53.074;8.822;2023-07-20T11:26:43;24.10;85.50
6758;DHT22;3416;53.074;8.822;2023-07-20T11:29:10;23.90;85.60
6758;DHT22;3416;53.074;8.822;2023-07-20T11:31:38;23.60;87.50
6758;DHT22;3416;53.074;8.822;2023-07-20T11:34:05;23.60;87.80
6758;DHT22;3416;53.074;8.822;2023-07-20T11:36:33;23.80;89.10
6758;DHT22;3416;53.074;8.822;2023-07-20T11:39:00;23.60;89.30
6758;DHT22;3416;53.074;8.822;2023-07-20T11:41:30;23.50;88.00
6758;DHT22;3416;53.074;8.822;2023-07-20T11:43:59;23.70;88.30
6758;DHT22;3416;53.074;8.822;2023-07-20T11:46:27;24.10;87.90
6758;DHT22;3416;53.074;8.822;2023-07-20T11:48:59;24.40;86.80
6758;DHT22;3416;53.074;8.822;2023-07-20T11:51:28;24.40;85.40
6758;DHT22;3416;53.074;8.822;2023-07-20T11:53:55;24.60;85.70
6758;DHT22;3416;53.074;8.822;2023-07-20T11:56:27;25.00;85.30
6758;DHT22;3416;53.074;8.822;2023-07-20T11:59:00;24.90;85.50
6758;DHT22;3416;53.074;8.822;2023-07-20T12:01:29;24.70;83.20
6758;DHT22;3416;53.074;8.822;2023-07-20T12:03:58;24.80;85.30
6758;DHT22;3416;53.074;8.822;2023-07-20T12:06:27;24.70;84.40
6758;DHT22;3416;53.074;8.822;2023-07-20T12:08:56;24.20;84.60
6758;DHT22;3416;53.074;8.822;2023-07-20T12:11:34;23.80;88.10
6758;DHT22;3416;53.074;8.822;2023-07-20T12:14:02;23.50;90.30
6758;DHT22;3416;53.074;8.822;2023-07-20T12:16:30;23.10;93.20
6758;DHT22;3416;53.074;8.822;2023-07-20T12:19:02;22.60;93.20
6758;DHT22;3416;53.074;8.822;2023-07-20T12:21:29;22.20;94.20
6758;DHT22;3416;53.074;8.822;2023-07-20T12:23:57;22.10;95.90
6758;DHT22;3416;53.074;8.822;2023-07-20T12:26:25;22.10;98.50
6758;DHT22;3416;53.074;8.822;2023-07-20T12:28:52;22.20;99.10
6758;DHT22;3416;53.074;8.822;2023-07-20T12:31:21;22.30;97.50
6758;DHT22;3416;53.074;8.822;2023-07-20T12:33:50;22.40;96.50
6758;DHT22;3416;53.074;8.822;2023-07-20T12:36:17;22.50;95.50
6758;DHT22;3416;53.074;8.822;2023-07-20T12:38:45;22.60;95.50
6758;DHT22;3416;53.074;8.822;2023-07-20T12:41:12;22.60;95.20
6758;DHT22;3416;53.074;8.822;2023-07-20T12:43:40;22.50;94.40
6758;DHT22;3416;53.074;8.822;2023-07-20T12:46:07;22.50;94.10
6758;DHT22;3416;53.074;8.822;2023-07-20T12:48:36;22.60;93.80
6758;DHT22;3416;53.074;8.822;2023-07-20T12:51:03;22.50;92.50
6758;DHT22;3416;53.074;8.822;2023-07-20T12:53:31;22.30;92.20
6758;DHT22;3416;53.074;8.822;2023-07-20T12:55:57;22.20;92.40
6758;DHT22;3416;53.074;8.822;2023-07-20T12:58:25;22.10;92.10
6758;DHT22;3416;53.074;8.822;2023-07-20T13:00:52;22.30;92.60
6758;DHT22;3416;53.074;8.822;2023-07-20T13:03:19;22.60;91.40
6758;DHT22;3416;53.074;8.822;2023-07-20T13:05:48;22.80;91.30
6758;DHT22;3416;53.074;8.822;2023-07-20T13:08:16;22.90;90.50
6758;DHT22;3416;53.074;8.822;2023-07-20T13:10:43;23.00;90.90
6758;DHT22;3416;53.074;8.822;2023-07-20T13:13:10;23.00;90.20
6758;DHT22;3416;53.074;8.822;2023-07-20T13:15:42;22.80;89.60
6758;DHT22;3416;53.074;8.822;2023-07-20T13:18:09;22.60;89.70
6758;DHT22;3416;53.074;8.822;2023-07-20T13:20:37;22.40;90.00
6758;DHT22;3416;53.074;8.822;2023-07-20T13:23:05;22.30;89.90
6758;DHT22;3416;53.074;8.822;2023-07-20T13:25:33;22.20;90.00
6758;DHT22;3416;53.074;8.822;2023-07-20T13:28:00;22.20;89.30
6758;DHT22;3416;53.074;8.822;2023-07-20T13:30:26;22.20;88.70
6758;DHT22;3416;53.074;8.822;2023-07-20T13:32:53;22.30;88.70
6758;DHT22;3416;53.074;8.822;2023-07-20T13:35:20;22.40;87.30
6758;DHT22;3416;53.074;8.822;2023-07-20T13:37:47;22.80;87.70
6758;DHT22;3416;53.074;8.822;2023-07-20T13:40:16;22.90;87.10
6758;DHT22;3416;53.074;8.822;2023-07-20T13:42:45;23.20;87.60
6758;DHT22;3416;53.074;8.822;2023-07-20T13:45:12;23.40;85.50
6758;DHT22;3416;53.074;8.822;2023-07-20T13:47:39;23.50;84.20
6758;DHT22;3416;53.074;8.822;2023-07-20T13:50:06;23.50;84.10
6758;DHT22;3416;53.074;8.822;2023-07-20T13:52:33;23.50;84.80
6758;DHT22;3416;53.074;8.822;2023-07-20T13:55:01;23.60;83.60
6758;DHT22;3416;53.074;8.822;2023-07-20T13:57:29;23.70;84.30
6758;DHT22;3416;53.074;8.822;2023-07-20T13:59:56;23.90;83.90
6758;DHT22;3416;53.074;8.822;2023-07-20T14:02:23;23.90;83.10
6758;DHT22;3416;53.074;8.822;2023-07-20T14:04:49;24.20;84.50
6758;DHT22;3416;53.074;8.822;2023-07-20T14:07:16;24.30;83.50
6758;DHT22;3416;53.074;8.822;2023-07-20T14:09:43;24.40;83.00
6758;DHT22;3416;53.074;8.822;2023-07-20T14:12:10;24.30;84.20
6758;DHT22;3416;53.074;8.822;2023-07-20T14:14:41;24.20;84.60
6758;DHT22;3416;53.074;8.822;2023-07-20T14:17:07;24.00;83.30
6758;DHT22;3416;53.074;8.822;2023-07-20T14:19:37;24.00;83.00
6758;DHT22;3416;53.074;8.822;2023-07-20T14:22:04;24.10;82.50
6758;DHT22;3416;53.074;8.822;2023-07-20T14:24:31;23.90;84.30
6758;DHT22;3416;53.074;8.822;2023-07-20T14:26:58;23.80;85.70
6758;DHT22;3416;53.074;8.822;2023-07-20T14:29:26;23.80;86.60
6758;DHT22;3416;53.074;8.822;2023-07-20T14:31:54;23.70;85.80
6758;DHT22;3416;53.074;8.822;2023-07-20T14:34:23;23.50;87.10
6758;DHT22;3416;53.074;8.822;2023-07-20T14:36:50;23.50;88.00
6758;DHT22;3416;53.074;8.822;2023-07-20T14:39:17;23.40;87.60
6758;DHT22;3416;53.074;8.822;2023-07-20T14:41:45;23.20;87.50
6758;DHT22;3416;53.074;8.822;2023-07-20T14:44:12;23.20;88.20
6758;DHT22;3416;53.074;8.822;2023-07-20T14:46:38;23.30;85.40
6758;DHT22;3416;53.074;8.822;2023-07-20T14:49:07;23.40;86.20
6758;DHT22;3416;53.074;8.822;2023-07-20T14:51:34;23.50;85.10
6758;DHT22;3416;53.074;8.822;2023-07-20T14:54:01;23.50;85.60
6758;DHT22;3416;53.074;8.822;2023-07-20T14:56:28;23.60;85.00
6758;DHT22;3416;53.074;8.822;2023-07-20T14:58:55;23.50;86.10
6758;DHT22;3416;53.074;8.822;2023-07-20T15:01:23;23.60;86.20
6758;DHT22;3416;53.074;8.822;2023-07-20T15:03:50;23.60;85.50
6758;DHT22;3416;53.074;8.822;2023-07-20T15:06:20;23.70;85.40
6758;DHT22;3416;53.074;8.822;2023-07-20T15:08:47;23.80;86.50
6758;DHT22;3416;53.074;8.822;2023-07-20T15:11:14;23.90;86.00
6758;DHT22;3416;53.074;8.822;2023-07-20T15:13:41;23.90;87.20
6758;DHT22;3416;53.074;8.822;2023-07-20T15:16:08;23.80;84.60
6758;DHT22;3416;53.074;8.822;2023-07-20T15:18:36;23.80;86.90
6758;DHT22;3416;53.074;8.822;2023-07-20T15:21:03;23.90;86.90
6758;DHT22;3416;53.074;8.822;2023-07-20T15:23:31;23.80;86.60
6758;DHT22;3416;53.074;8.822;2023-07-20T15:25:59;23.70;85.80
6758;DHT22;3416;53.074;8.822;2023-07-20T15:28:26;23.70;87.40
6758;DHT22;3416;53.074;8.822;2023-07-20T15:30:59;23.60;87.30
6758;DHT22;3416;53.074;8.822;2023-07-20T15:33:26;23.60;87.40
6758;DHT22;3416;53.074;8.822;2023-07-20T15:35:53;23.60;87.70
6758;DHT22;3416;53.074;8.822;2023-07-20T15:38:20;23.60;87.80
6758;DHT22;3416;53.074;8.822;2023-07-20T15:40:48;23.60;88.20
6758;DHT22;3416;53.074;8.822;2023-07-20T15:43:15;23.50;87.80
6758;DHT22;3416;53.074;8.822;2023-07-20T15:45:46;23.30;88.00
6758;DHT22;3416;53.074;8.822;2023-07-20T15:48:14;23.20;88.70
6758;DHT22;3416;53.074;8.822;2023-07-20T15:50:42;23.00;89.80
6758;DHT22;3416;53.074;8.822;2023-07-20T15:53:10;22.80;90.80
6758;DHT22;3416;53.074;8.822;2023-07-20T15:55:36;22.70;91.60
6758;DHT22;3416;53.074;8.822;2023-07-20T15:58:05;22.60;91.80
6758;DHT22;3416;53.074;8.822;2023-07-20T16:00:32;22.50;92.30
6758;DHT22;3416;53.074;8.822;2023-07-20T16:02:59;22.50;92.90
6758;DHT22;3416;53.074;8.822;2023-07-20T16:05:26;22.40;94.20
6758;DHT22;3416;53.074;8.822;2023-07-20T16:07:52;22.40;93.30
6758;DHT22;3416;53.074;8.822;2023-07-20T16:10:19;22.40;92.30
6758;DHT22;3416;53.074;8.822;2023-07-20T16:12:46;22.40;92.90
6758;DHT22;3416;53.074;8.822;2023-07-20T16:15:14;22.50;93.00
6758;DHT22;3416;53.074;8.822;2023-07-20T16:17:41;22.50;92.60
6758;DHT22;3416;53.074;8.822;2023-07-20T16:20:09;22.20;91.60
6758;DHT22;3416;53.074;8.822;2023-07-20T16:22:36;22.00;92.60
6758;DHT22;3416;53.074;8.822;2023-07-20T16:25:03;21.60;93.90
6758;DHT22;3416;53.074;8.822;2023-07-20T16:27:30;21.50;94.80
6758;DHT22;3416;53.074;8.822;2023-07-20T16:29:57;21.50;95.30